Carbon, Indiana
Current Conditions -  °F | °C
As of 11:10 AM on Thursday 29 Jan 2015 (Local Time) from KHUF Reporting Station
Haze Haze  
Wind Chill: 27°   Ceiling: 1400
Heat Index: 37°   Visibility: 4mi
Dew Point: 32°   Wind: 17mph
Humidity: 82%   Direction: 300°WNW
Pressure: 29.94"   Gusts: 29mph
Location:  39.6°N, 87.12°W
Report Text: KHUF 291610Z 30015G25KT 4SM HZ OVC014 03/00 A2994 RMK AO2 T00280000
Loading
Personal Weather Stations






























Interactive Weather Map New forecast layout! Learn more

10-Day Weather Forecast

Advertisements
Track Severe Weather on mobile